createdAt,value
2022-08-11T00:15:52.447Z,14.93
2022-08-11T00:35:57.625Z,14.67
2022-08-11T00:56:00.831Z,14.58
2022-08-11T01:16:03.560Z,14.53
2022-08-11T01:36:06.041Z,14.54
2022-08-11T01:56:10.086Z,14.44
2022-08-11T02:16:12.888Z,14.40
2022-08-11T02:36:16.012Z,14.26
2022-08-11T02:56:18.797Z,14.22
2022-08-11T03:16:40.118Z,13.76
2022-08-11T03:37:15.222Z,13.44
2022-08-11T03:57:11.267Z,13.81
2022-08-11T04:17:13.708Z,13.51
2022-08-11T04:37:36.031Z,13.71
2022-08-11T04:57:57.464Z,14.09
2022-08-11T05:18:20.513Z,14.74
2022-08-11T05:38:41.509Z,15.88
2022-08-11T05:58:44.061Z,16.88
2022-08-11T06:18:46.533Z,18.36
2022-08-11T06:38:49.403Z,19.82
2022-08-11T06:59:10.745Z,21.41
2022-08-11T07:19:31.915Z,23.16
2022-08-11T07:39:34.506Z,22.76
2022-08-11T07:59:59.928Z,21.95
2022-08-11T08:20:05.067Z,22.38
2022-08-11T08:40:07.543Z,22.03
2022-08-11T09:00:13.051Z,22.11
2022-08-11T09:20:17.668Z,22.36
2022-08-11T09:40:32.663Z,22.18
2022-08-11T10:00:38.427Z,23.99
2022-08-11T10:20:40.955Z,24.00
2022-08-11T10:40:43.789Z,24.25
2022-08-11T11:00:46.276Z,23.46
2022-08-11T11:20:48.804Z,24.70
2022-08-11T11:41:11.258Z,24.70
2022-08-11T12:01:26.556Z,25.59
2022-08-11T12:21:30.187Z,25.22
2022-08-11T12:41:51.910Z,24.74
2022-08-11T13:02:13.715Z,25.56
2022-08-11T13:22:16.300Z,24.54
2022-08-11T13:42:21.313Z,25.54
2022-08-11T14:02:28.291Z,20.04
2022-08-11T14:22:32.265Z,19.04
2022-08-11T14:42:53.936Z,19.19
2022-08-11T15:03:12.040Z,19.64
2022-08-11T15:23:33.896Z,19.35
2022-08-11T15:43:55.218Z,20.85
2022-08-11T16:04:13.229Z,19.66
2022-08-11T16:27:01.681Z,19.67
2022-08-11T16:44:57.041Z,19.96
2022-08-11T17:05:18.367Z,20.19
2022-08-11T17:25:20.794Z,19.66
2022-08-11T17:45:42.109Z,19.51
2022-08-11T18:05:44.863Z,19.11
2022-08-11T18:26:07.240Z,18.64
2022-08-11T18:46:29.218Z,18.42
2022-08-11T19:06:51.263Z,18.00
2022-08-11T19:27:12.675Z,18.04
2022-08-11T19:47:34.126Z,17.56
2022-08-11T20:07:55.490Z,17.51
2022-08-11T20:28:16.373Z,17.01
2022-08-11T20:48:37.751Z,16.49
2022-08-11T21:08:59.490Z,16.19
2022-08-11T22:11:31.501Z,15.15
2022-08-11T22:31:18.963Z,14.83
2022-08-11T22:51:40.506Z,14.74
2022-08-11T23:12:07.230Z,14.83
2022-08-11T23:32:31.139Z,14.52
2022-08-11T23:52:52.551Z,14.28
